createdAt,value
2023-01-18T00:01:36.117Z,26.10
2023-01-18T00:04:05.120Z,22.90
2023-01-18T00:06:34.058Z,21.33
2023-01-18T00:09:03.029Z,27.00
2023-01-18T00:11:31.967Z,24.42
2023-01-18T00:14:02.918Z,26.65
2023-01-18T00:16:33.401Z,25.08
2023-01-18T00:19:02.510Z,30.90
2023-01-18T00:21:31.628Z,28.38
2023-01-18T00:24:00.627Z,24.92
2023-01-18T00:26:29.589Z,23.90
2023-01-18T00:28:58.535Z,24.30
2023-01-18T00:31:27.555Z,26.88
2023-01-18T00:33:57.987Z,25.05
2023-01-18T00:36:27.438Z,28.27
2023-01-18T00:38:56.570Z,30.30
2023-01-18T00:41:25.627Z,23.80
2023-01-18T00:43:53.947Z,31.33
2023-01-18T00:46:25.051Z,21.65
2023-01-18T00:48:54.386Z,27.13
2023-01-18T00:51:26.508Z,23.08
2023-01-18T00:53:55.448Z,24.27
2023-01-18T00:56:24.691Z,24.77
2023-01-18T00:58:53.731Z,25.67
2023-01-18T01:01:22.951Z,28.60
2023-01-18T01:04:09.128Z,26.95
2023-01-18T01:06:45.909Z,29.95
2023-01-18T01:09:18.374Z,25.75
2023-01-18T01:12:02.202Z,27.95
2023-01-18T01:14:48.938Z,31.52
2023-01-18T01:17:35.108Z,25.48
2023-01-18T01:20:21.861Z,25.95
2023-01-18T01:23:09.503Z,23.92
2023-01-18T01:25:55.694Z,26.17
2023-01-18T01:28:25.026Z,19.90
2023-01-18T01:30:58.488Z,21.92
2023-01-18T01:33:27.553Z,27.30
2023-01-18T01:35:57.994Z,19.65
2023-01-18T01:38:28.802Z,22.10
2023-01-18T01:40:59.333Z,21.08
2023-01-18T01:43:46.814Z,20.75
2023-01-18T01:46:36.419Z,24.70
2023-01-18T01:49:11.424Z,21.20
2023-01-18T01:51:43.756Z,20.25
2023-01-18T01:54:19.488Z,20.60
2023-01-18T01:56:50.541Z,19.38
2023-01-18T01:59:20.300Z,19.60
2023-01-18T02:01:49.929Z,19.02
2023-01-18T02:04:20.053Z,18.05
2023-01-18T02:06:49.038Z,20.40
2023-01-18T02:09:23.393Z,20.20
2023-01-18T02:11:54.333Z,23.30
2023-01-18T02:14:27.252Z,23.05
2023-01-18T02:17:09.960Z,22.05
2023-01-18T02:20:20.044Z,21.05
2023-01-18T02:23:18.690Z,22.92
2023-01-18T02:26:16.364Z,23.10
2023-01-18T02:28:52.040Z,19.52
2023-01-18T02:31:25.137Z,19.95
2023-01-18T02:34:03.982Z,22.40
2023-01-18T02:36:39.459Z,23.30
2023-01-18T02:39:23.332Z,19.15
2023-01-18T02:42:19.636Z,18.10
2023-01-18T02:45:07.887Z,17.98
2023-01-18T02:47:38.462Z,23.30
2023-01-18T02:50:07.956Z,22.00
2023-01-18T02:52:41.716Z,19.33
2023-01-18T02:55:15.784Z,18.55
2023-01-18T02:57:46.869Z,15.85
2023-01-18T03:00:21.293Z,17.52
2023-01-18T03:02:51.461Z,18.33
2023-01-18T03:05:22.848Z,16.17
2023-01-18T03:07:56.229Z,15.85
2023-01-18T03:10:29.586Z,14.98
2023-01-18T03:13:01.573Z,17.48
2023-01-18T03:15:39.874Z,19.58
2023-01-18T03:18:17.471Z,23.00
2023-01-18T03:20:50.990Z,16.55
2023-01-18T03:23:41.976Z,17.83
2023-01-18T03:26:14.852Z,15.48
2023-01-18T03:29:04.440Z,16.98
2023-01-18T03:31:57.765Z,18.73
2023-01-18T03:34:31.477Z,19.02
2023-01-18T03:37:04.271Z,14.63
2023-01-18T03:39:38.090Z,13.40
2023-01-18T03:42:11.442Z,15.32
2023-01-18T03:44:47.635Z,20.67
2023-01-18T03:47:18.506Z,15.52
2023-01-18T03:49:47.853Z,15.77
2023-01-18T03:52:19.988Z,16.95
2023-01-18T03:54:58.549Z,16.95
2023-01-18T03:57:34.460Z,15.88
2023-01-18T04:00:06.148Z,15.73
2023-01-18T04:02:45.540Z,19.10
2023-01-18T04:05:14.699Z,14.55
2023-01-18T04:07:44.057Z,19.67
2023-01-18T04:10:13.735Z,16.45
2023-01-18T04:12:42.755Z,16.33
2023-01-18T04:15:12.575Z,12.95
2023-01-18T04:17:42.961Z,18.08
2023-01-18T04:20:13.082Z,14.27
2023-01-18T04:22:42.056Z,15.60
2023-01-18T04:25:11.431Z,15.18
2023-01-18T04:27:41.712Z,16.70
2023-01-18T04:30:12.830Z,15.68
2023-01-18T04:32:46.317Z,14.80
2023-01-18T04:35:15.682Z,17.52
2023-01-18T04:37:44.882Z,14.13
2023-01-18T04:40:14.782Z,18.17
2023-01-18T04:42:43.975Z,15.68
2023-01-18T04:45:14.363Z,18.05
2023-01-18T04:47:45.216Z,15.95
2023-01-18T04:50:14.425Z,16.25
2023-01-18T04:52:43.422Z,18.65
2023-01-18T04:55:15.989Z,17.83
2023-01-18T04:57:45.622Z,15.50
2023-01-18T05:00:15.762Z,14.25
2023-01-18T05:02:46.270Z,18.83
2023-01-18T05:05:15.510Z,15.10
2023-01-18T05:07:44.542Z,17.20
2023-01-18T05:10:13.952Z,17.75
2023-01-18T05:12:43.132Z,16.63
2023-01-18T05:15:12.513Z,16.63
2023-01-18T05:17:41.503Z,17.27
2023-01-18T05:20:13.794Z,12.88
2023-01-18T05:22:42.715Z,15.23
2023-01-18T05:25:11.789Z,13.93
2023-01-18T05:27:41.929Z,18.02
2023-01-18T05:30:12.194Z,13.82
2023-01-18T05:32:41.483Z,19.75
2023-01-18T05:35:12.625Z,15.23
2023-01-18T05:37:41.697Z,17.38
2023-01-18T05:40:12.789Z,13.48
2023-01-18T05:42:42.223Z,13.60
2023-01-18T05:45:12.120Z,15.73
2023-01-18T05:47:41.409Z,17.10
2023-01-18T05:50:12.697Z,15.18
2023-01-18T05:52:41.806Z,17.35
2023-01-18T05:55:11.032Z,13.40
2023-01-18T05:57:40.083Z,12.65
2023-01-18T06:00:11.345Z,14.88
2023-01-18T06:02:43.569Z,13.40
2023-01-18T06:05:13.997Z,12.70
2023-01-18T06:07:43.521Z,14.95
2023-01-18T06:10:12.823Z,14.82
2023-01-18T06:12:42.315Z,12.65
2023-01-18T06:15:12.662Z,16.25
2023-01-18T06:17:42.398Z,13.35
2023-01-18T06:20:14.612Z,15.55
2023-01-18T06:22:45.736Z,21.98
2023-01-18T06:25:14.741Z,15.00
2023-01-18T06:27:43.789Z,17.70
2023-01-18T06:30:13.183Z,13.88
2023-01-18T06:32:48.658Z,13.40
2023-01-18T06:35:20.508Z,14.43
2023-01-18T06:37:49.495Z,14.93
2023-01-18T06:40:18.956Z,16.25
2023-01-18T06:42:49.658Z,15.90
2023-01-18T06:45:22.135Z,17.83
2023-01-18T06:47:51.102Z,15.68
2023-01-18T06:50:21.837Z,16.92
2023-01-18T06:52:51.603Z,15.10
2023-01-18T06:55:21.310Z,11.63
2023-01-18T06:57:50.342Z,15.60
2023-01-18T07:00:20.171Z,14.00
2023-01-18T07:02:49.170Z,16.30
2023-01-18T07:05:18.314Z,16.80
2023-01-18T07:07:48.816Z,15.65
2023-01-18T07:10:18.427Z,13.25
2023-01-18T07:12:49.091Z,15.95
2023-01-18T07:15:22.736Z,15.07
2023-01-18T07:17:52.134Z,14.55
2023-01-18T07:20:21.550Z,15.20
2023-01-18T07:22:53.936Z,17.40
2023-01-18T07:25:23.346Z,15.30
2023-01-18T07:27:52.443Z,19.20
2023-01-18T07:30:21.631Z,18.27
2023-01-18T07:32:52.704Z,20.13
2023-01-18T07:35:23.311Z,14.57
2023-01-18T07:37:54.323Z,18.65
2023-01-18T07:40:23.677Z,13.02
2023-01-18T07:42:59.202Z,20.42
2023-01-18T07:45:28.607Z,13.05
2023-01-18T07:47:57.906Z,13.75
2023-01-18T07:50:27.207Z,16.38
2023-01-18T07:52:58.132Z,15.68
2023-01-18T07:55:27.273Z,18.23
2023-01-18T07:57:57.384Z,14.80
2023-01-18T08:00:27.155Z,12.75
2023-01-18T08:02:59.080Z,16.67
2023-01-18T08:05:29.917Z,15.35
2023-01-18T08:08:00.509Z,13.93
2023-01-18T08:10:30.773Z,16.42
2023-01-18T08:13:00.214Z,17.17
2023-01-18T08:15:29.871Z,17.58
2023-01-18T08:17:58.931Z,15.57
2023-01-18T08:20:29.117Z,16.27
2023-01-18T08:23:01.396Z,17.13
2023-01-18T08:25:31.878Z,18.10
2023-01-18T08:28:02.517Z,17.65
2023-01-18T08:30:33.386Z,17.80
2023-01-18T08:33:03.642Z,17.52
2023-01-18T08:35:34.926Z,19.30
2023-01-18T08:38:05.377Z,16.10
2023-01-18T08:40:35.063Z,21.95
2023-01-18T08:43:05.164Z,17.33
2023-01-18T08:45:35.511Z,14.95
2023-01-18T08:48:06.905Z,16.05
2023-01-18T08:50:37.319Z,12.48
2023-01-18T08:53:07.806Z,18.88
2023-01-18T08:55:38.132Z,18.20
2023-01-18T08:58:07.779Z,13.68
2023-01-18T09:00:36.825Z,15.35
2023-01-18T09:03:06.975Z,17.70
2023-01-18T09:05:37.337Z,18.98
2023-01-18T09:08:08.526Z,20.67
2023-01-18T09:10:38.888Z,19.20
2023-01-18T09:13:08.069Z,19.10
2023-01-18T09:15:37.128Z,17.02
2023-01-18T09:18:08.299Z,14.68
2023-01-18T09:20:37.551Z,17.95
2023-01-18T09:23:09.841Z,18.20
2023-01-18T09:25:41.181Z,16.38
2023-01-18T09:28:13.172Z,16.13
2023-01-18T09:30:42.201Z,19.00
2023-01-18T09:33:12.502Z,15.90
2023-01-18T09:35:41.668Z,15.75
2023-01-18T09:38:13.060Z,20.33
2023-01-18T09:40:45.384Z,23.92
2023-01-18T09:43:20.291Z,13.90
2023-01-18T09:45:49.367Z,16.35
2023-01-18T09:48:29.471Z,17.20
2023-01-18T09:51:02.384Z,15.85
2023-01-18T09:53:48.849Z,17.02
2023-01-18T09:56:23.320Z,19.38
2023-01-18T09:59:05.876Z,17.20
2023-01-18T10:01:36.671Z,14.38
2023-01-18T10:04:14.293Z,11.65
2023-01-18T10:06:49.065Z,13.13
2023-01-18T10:09:22.455Z,16.60
2023-01-18T10:11:59.815Z,16.17
2023-01-18T10:14:43.181Z,15.18
2023-01-18T10:17:21.946Z,16.83
2023-01-18T10:20:17.083Z,18.05
2023-01-18T10:22:52.317Z,23.35
2023-01-18T10:25:32.753Z,22.15
2023-01-18T10:28:26.311Z,23.50
2023-01-18T10:31:08.652Z,16.73
2023-01-18T10:33:42.323Z,16.10
2023-01-18T10:36:16.374Z,16.35
2023-01-18T10:38:46.768Z,13.23
2023-01-18T10:41:21.792Z,20.13
2023-01-18T10:43:50.802Z,14.63
2023-01-18T10:46:20.778Z,12.63
2023-01-18T10:48:51.256Z,15.60
2023-01-18T10:51:31.312Z,14.52
2023-01-18T10:54:00.392Z,14.77
2023-01-18T10:56:31.175Z,15.52
2023-01-18T10:59:02.243Z,14.80
2023-01-18T11:01:34.816Z,17.85
2023-01-18T11:04:07.756Z,18.95
2023-01-18T11:06:47.410Z,13.85
2023-01-18T11:09:42.028Z,15.57
2023-01-18T11:12:38.396Z,16.02
2023-01-18T11:15:28.695Z,17.95
2023-01-18T11:18:20.254Z,17.75
2023-01-18T11:20:51.698Z,14.70
2023-01-18T11:23:25.577Z,18.20
2023-01-18T11:26:00.842Z,20.25
2023-01-18T11:28:39.492Z,19.25
2023-01-18T11:31:12.078Z,18.88
2023-01-18T11:33:51.241Z,19.50
2023-01-18T11:36:22.249Z,20.25
2023-01-18T11:38:52.337Z,18.50
2023-01-18T11:41:23.746Z,19.73
2023-01-18T11:44:06.394Z,15.65
2023-01-18T11:46:47.326Z,17.33
2023-01-18T11:49:29.549Z,16.83
2023-01-18T11:52:03.165Z,15.57
2023-01-18T11:54:38.948Z,15.98
2023-01-18T11:57:10.830Z,14.90
2023-01-18T11:59:46.397Z,15.43
2023-01-18T12:02:44.048Z,14.48
2023-01-18T12:05:45.999Z,13.10
2023-01-18T12:08:29.680Z,12.38
2023-01-18T12:11:15.509Z,15.50
2023-01-18T12:13:53.092Z,16.60
2023-01-18T12:16:29.444Z,15.55
2023-01-18T12:19:40.055Z,12.00
2023-01-18T12:22:34.956Z,14.05
2023-01-18T12:25:20.700Z,13.38
2023-01-18T12:30:46.365Z,17.38
2023-01-18T12:33:42.771Z,14.85
2023-01-18T12:36:44.887Z,13.35
2023-01-18T12:39:26.043Z,12.55
2023-01-18T12:41:59.822Z,13.32
2023-01-18T12:45:06.502Z,11.05
2023-01-18T12:47:39.461Z,14.20
2023-01-18T12:50:23.173Z,19.33
2023-01-18T12:52:56.180Z,11.85
2023-01-18T12:55:27.030Z,15.30
2023-01-18T12:57:59.906Z,11.55
2023-01-18T13:00:35.500Z,11.57
2023-01-18T13:03:11.160Z,12.95
2023-01-18T13:05:52.899Z,13.48
2023-01-18T13:08:34.759Z,22.05
2023-01-18T13:11:09.662Z,13.48
2023-01-18T13:13:41.031Z,11.05
2023-01-18T13:16:25.991Z,10.55
2023-01-18T13:19:01.559Z,12.13
2023-01-18T13:21:46.019Z,13.27
2023-01-18T13:24:25.071Z,11.25
2023-01-18T13:26:54.722Z,17.67
2023-01-18T13:29:29.800Z,14.48
2023-01-18T13:34:32.496Z,15.10
2023-01-18T13:37:14.259Z,14.30
2023-01-18T13:39:48.426Z,12.45
2023-01-18T13:42:27.530Z,12.45
2023-01-18T13:45:17.360Z,15.68
2023-01-18T13:48:07.773Z,10.70
2023-01-18T13:50:47.451Z,15.23
2023-01-18T13:53:31.404Z,10.93
2023-01-18T13:56:29.756Z,12.47
2023-01-18T13:59:15.863Z,11.75
2023-01-18T14:01:50.845Z,15.50
2023-01-18T14:07:05.045Z,14.75
2023-01-18T14:09:40.155Z,11.13
2023-01-18T14:12:09.962Z,15.05
2023-01-18T14:14:54.734Z,11.05
2023-01-18T14:17:25.490Z,15.02
2023-01-18T14:20:09.240Z,13.75
2023-01-18T14:22:58.982Z,10.23
2023-01-18T14:25:47.610Z,15.70
2023-01-18T14:28:23.417Z,17.25
2023-01-18T14:30:58.719Z,14.10
2023-01-18T14:36:01.198Z,12.48
2023-01-18T14:38:31.664Z,14.00
2023-01-18T14:41:07.012Z,14.10
2023-01-18T14:43:39.036Z,11.90
2023-01-18T14:46:12.787Z,12.65
2023-01-18T14:48:49.125Z,12.52
2023-01-18T14:51:20.155Z,12.93
2023-01-18T14:53:54.088Z,12.10
2023-01-18T14:56:26.257Z,12.93
2023-01-18T14:58:57.439Z,11.98
2023-01-18T15:01:32.432Z,15.85
2023-01-18T15:06:36.951Z,11.63
2023-01-18T15:11:40.006Z,11.90
2023-01-18T15:14:13.313Z,14.10
2023-01-18T15:16:43.628Z,10.77
2023-01-18T15:19:18.525Z,14.65
2023-01-18T15:21:47.997Z,10.90
2023-01-18T15:24:20.007Z,14.88
2023-01-18T15:26:54.365Z,11.43
2023-01-18T15:29:26.341Z,10.65
2023-01-18T15:31:58.131Z,13.00
2023-01-18T15:34:31.637Z,14.80
2023-01-18T15:37:02.348Z,11.70
2023-01-18T15:39:33.155Z,15.65
2023-01-18T15:42:09.002Z,17.75
2023-01-18T15:44:43.429Z,12.85
2023-01-18T15:47:18.012Z,14.07
2023-01-18T15:49:50.789Z,13.75
2023-01-18T15:52:37.618Z,16.83
2023-01-18T15:55:14.451Z,13.35
2023-01-18T15:57:57.753Z,15.48
2023-01-18T16:00:30.410Z,16.33
2023-01-18T16:03:00.039Z,16.17
2023-01-18T16:05:29.548Z,14.27
2023-01-18T16:08:16.808Z,17.65
2023-01-18T16:10:54.276Z,17.80
2023-01-18T16:13:39.635Z,15.25
2023-01-18T16:16:24.182Z,14.50
2023-01-18T16:19:02.747Z,15.40
2023-01-18T16:21:40.681Z,17.52
2023-01-18T16:24:27.502Z,16.38
2023-01-18T16:26:58.166Z,14.20
2023-01-18T16:29:28.935Z,17.35
2023-01-18T16:32:20.677Z,19.02
2023-01-18T16:34:49.793Z,21.30
2023-01-18T16:37:19.357Z,15.63
2023-01-18T16:39:49.141Z,19.98
2023-01-18T16:42:21.757Z,19.70
2023-01-18T16:44:55.584Z,17.95
2023-01-18T16:47:24.753Z,19.13
2023-01-18T16:49:54.432Z,21.33
2023-01-18T16:52:23.538Z,20.45
2023-01-18T16:54:52.594Z,21.42
2023-01-18T16:57:23.726Z,18.27
2023-01-18T16:59:54.404Z,18.77
2023-01-18T17:02:23.495Z,20.65
2023-01-18T17:04:52.612Z,25.95
2023-01-18T17:07:21.970Z,20.90
2023-01-18T17:09:53.246Z,18.17
2023-01-18T17:12:22.491Z,24.15
2023-01-18T17:14:51.682Z,18.90
2023-01-18T17:17:22.155Z,16.05
2023-01-18T17:19:52.161Z,27.40
2023-01-18T17:22:21.187Z,21.00
2023-01-18T17:24:53.511Z,22.50
2023-01-18T17:27:22.666Z,20.60
2023-01-18T17:29:52.331Z,17.33
2023-01-18T17:32:22.792Z,18.70
2023-01-18T17:34:51.936Z,23.60
2023-01-18T17:37:21.082Z,23.45
2023-01-18T17:40:09.471Z,21.52
2023-01-18T17:42:39.233Z,21.48
2023-01-18T17:45:10.190Z,18.67
2023-01-18T17:47:41.771Z,20.25
2023-01-18T17:50:14.426Z,22.85
2023-01-18T17:52:43.607Z,21.92
2023-01-18T17:55:15.281Z,22.25
2023-01-18T17:57:45.077Z,21.20
2023-01-18T18:00:17.451Z,17.42
2023-01-18T18:02:52.455Z,19.80
2023-01-18T18:05:22.665Z,27.27
2023-01-18T18:07:51.860Z,21.60
2023-01-18T18:10:20.963Z,23.25
2023-01-18T18:12:51.556Z,23.88
2023-01-18T18:15:22.414Z,21.65
2023-01-18T18:17:52.973Z,23.17
2023-01-18T18:20:23.001Z,24.60
2023-01-18T18:22:52.149Z,23.15
2023-01-18T18:25:21.319Z,24.33
2023-01-18T18:27:50.492Z,21.75
2023-01-18T18:30:20.050Z,20.08
2023-01-18T18:32:49.057Z,21.73
2023-01-18T18:35:25.587Z,22.98
2023-01-18T18:37:55.811Z,21.20
2023-01-18T18:40:25.892Z,24.60
2023-01-18T18:43:02.278Z,23.67
2023-01-18T18:45:32.612Z,21.80
2023-01-18T18:48:02.127Z,31.83
2023-01-18T18:50:33.000Z,21.27
2023-01-18T18:53:02.440Z,30.02
2023-01-18T18:55:32.529Z,25.83
2023-01-18T18:58:01.778Z,26.55
2023-01-18T19:00:31.181Z,25.98
2023-01-18T19:03:01.469Z,29.85
2023-01-18T19:05:34.572Z,27.58
2023-01-18T19:08:04.145Z,30.33
2023-01-18T19:10:33.967Z,26.52
2023-01-18T19:13:05.022Z,21.67
2023-01-18T19:15:34.352Z,28.98
2023-01-18T19:18:03.364Z,27.77
2023-01-18T19:20:33.818Z,27.25
2023-01-18T19:23:03.450Z,24.40
2023-01-18T19:25:33.251Z,29.30
2023-01-18T19:28:02.272Z,21.20
2023-01-18T19:30:32.871Z,26.98
2023-01-18T19:33:03.247Z,28.20
2023-01-18T19:35:40.694Z,27.02
2023-01-18T19:38:10.028Z,21.25
2023-01-18T19:40:39.340Z,31.85
2023-01-18T19:43:08.421Z,30.08
2023-01-18T19:45:39.240Z,28.33
2023-01-18T19:48:08.288Z,29.27
2023-01-18T19:50:38.807Z,25.85
2023-01-18T19:53:07.907Z,24.75
2023-01-18T19:55:39.572Z,25.95
2023-01-18T19:58:09.444Z,31.13
2023-01-18T20:00:41.487Z,30.55
2023-01-18T20:03:14.807Z,26.83
2023-01-18T20:05:47.862Z,22.30
2023-01-18T20:08:17.121Z,23.02
2023-01-18T20:10:47.403Z,27.38
2023-01-18T20:13:16.492Z,26.63
2023-01-18T20:15:47.569Z,32.70
2023-01-18T20:18:16.595Z,28.98
2023-01-18T20:20:47.126Z,30.17
2023-01-18T20:23:16.192Z,27.98
2023-01-18T20:25:45.187Z,29.35
2023-01-18T20:28:14.529Z,31.55
2023-01-18T20:30:49.103Z,31.25
2023-01-18T20:33:18.604Z,27.48
2023-01-18T20:35:49.048Z,29.00
2023-01-18T20:38:18.110Z,26.17
2023-01-18T20:40:47.462Z,31.10
2023-01-18T20:43:16.436Z,30.42
2023-01-18T20:45:45.441Z,31.63
2023-01-18T20:48:15.043Z,31.83
2023-01-18T20:50:44.051Z,29.75
2023-01-18T20:53:15.844Z,28.98
2023-01-18T20:55:44.871Z,30.90
2023-01-18T20:58:13.860Z,20.90
2023-01-18T21:00:43.011Z,26.17
2023-01-18T21:03:15.436Z,30.30
2023-01-18T21:05:44.686Z,27.75
2023-01-18T21:08:17.537Z,27.95
2023-01-18T21:10:47.186Z,30.38
2023-01-18T21:13:16.337Z,26.25
2023-01-18T21:15:46.711Z,28.15
2023-01-18T21:18:15.693Z,32.30
2023-01-18T21:20:44.864Z,26.58
2023-01-18T21:23:16.315Z,27.80
2023-01-18T21:25:51.113Z,30.45
2023-01-18T21:28:20.647Z,29.92
2023-01-18T21:30:52.243Z,32.03
2023-01-18T21:33:21.520Z,30.33
2023-01-18T21:35:50.598Z,28.92
2023-01-18T21:38:21.145Z,30.45
2023-01-18T21:40:50.337Z,25.63
2023-01-18T21:43:39.265Z,23.85
2023-01-18T21:46:11.474Z,31.60
2023-01-18T21:48:40.445Z,24.92
2023-01-18T21:51:28.289Z,26.77
2023-01-18T21:54:16.844Z,21.70
2023-01-18T21:56:46.444Z,26.92
2023-01-18T21:59:15.803Z,30.08
2023-01-18T22:01:47.989Z,24.75
2023-01-18T22:04:34.947Z,26.95
2023-01-18T22:07:04.450Z,26.65
2023-01-18T22:09:35.223Z,29.85
2023-01-18T22:12:04.178Z,29.27
2023-01-18T22:14:33.576Z,23.95
2023-01-18T22:17:02.660Z,29.17
2023-01-18T22:19:31.672Z,21.85
2023-01-18T22:22:01.143Z,20.85
2023-01-18T22:24:30.427Z,22.05
2023-01-18T22:27:00.904Z,23.10
2023-01-18T22:29:29.991Z,22.38
2023-01-18T22:31:59.101Z,24.40
2023-01-18T22:34:28.163Z,20.55
2023-01-18T22:36:57.904Z,18.80
2023-01-18T22:39:27.265Z,23.45
2023-01-18T22:41:56.261Z,25.23
2023-01-18T22:44:26.648Z,19.73
2023-01-18T22:46:55.657Z,24.77
2023-01-18T22:49:24.701Z,25.55
2023-01-18T22:51:53.801Z,24.02
2023-01-18T22:54:23.950Z,27.95
2023-01-18T22:56:53.017Z,23.02
2023-01-18T22:59:22.047Z,20.33
2023-01-18T23:01:52.438Z,19.92
2023-01-18T23:04:24.394Z,22.67
2023-01-18T23:06:54.793Z,13.23
2023-01-18T23:09:25.341Z,21.48
2023-01-18T23:11:54.354Z,23.25
2023-01-18T23:14:40.698Z,20.50
2023-01-18T23:17:29.894Z,22.20
2023-01-18T23:19:59.026Z,23.92
2023-01-18T23:22:28.460Z,25.83
2023-01-18T23:24:57.488Z,27.70
2023-01-18T23:27:26.670Z,23.42
2023-01-18T23:29:58.840Z,22.83
2023-01-18T23:32:30.755Z,22.15
2023-01-18T23:35:01.358Z,26.00
2023-01-18T23:37:30.342Z,19.92
2023-01-18T23:40:16.550Z,23.67
2023-01-18T23:43:04.042Z,22.90
2023-01-18T23:45:50.677Z,25.20
2023-01-18T23:48:38.870Z,24.25
2023-01-18T23:51:27.756Z,19.10
2023-01-18T23:54:17.941Z,25.10
2023-01-18T23:56:48.560Z,23.23
2023-01-18T23:59:17.616Z,22.10
